Latest Weather Observations for Rutherglen

IDV60801

Issued at 5:31 pm EST Friday 4 September 2015 (issued every 30 minutes, with the page automatically refreshed every 10 minutes)

About weather observations | Map of weather stations | Latest weather observations for VIC | Other Formats
Station Details ID: 082039 Name: RUTHERGLEN RESEARCH Lat: -36.10 Lon: 146.51 Height: 175.0 m
Data from the previous 72 hours. | See also: Recent months at Rutherglen
Date/Time
EST
Temp
°C
App
Temp
°C
Dew
Point
Rel
Hum
%
Delta-T
°C
Wind Press
QNH
hPa
Press
MSL
hPa
Rain
since 9 am
mm
Dir
 
Spd
km/h
Gust
km/h
Spd
kts
Gust
kts
04/05:30pm 12.6 10.1 8.3 75 2.1 WNW 11 17 6 9 - - 0.0
04/05:00pm 14.1 11.5 9.3 73 2.5 W 13 17 7 9 - - 0.0
04/04:30pm 15.2 13.1 9.8 70 2.8 WNW 11 17 6 9 - - 0.0
04/04:00pm 15.6 13.5 9.9 69 3.0 W 11 15 6 8 - - 0.0
04/03:30pm 15.8 14.2 10.1 69 3.0 WNW 9 13 5 7 - - 0.0
04/03:00pm 14.6 12.5 11.0 79 1.9 W 13 17 7 9 - - 0.0
04/02:30pm 16.0 14.9 10.7 71 2.8 NW 7 17 4 9 - - 0.0
04/02:00pm 15.4 13.9 10.4 72 2.7 WNW 9 13 5 7 - - 0.0
04/01:30pm 15.1 13.4 9.7 70 2.8 WNW 9 17 5 9 - - 0.0
04/01:00pm 15.5 13.5 10.1 70 2.9 WNW 11 20 6 11 - - 0.0
04/12:30pm 16.0 14.6 11.0 72 2.7 N 9 17 5 9 - - 0.0
04/12:00pm 15.5 13.8 9.8 69 3.0 N 9 17 5 9 - - 0.0
04/11:30am 15.3 13.8 10.7 74 2.5 NE 9 17 5 9 - - 0.0
04/11:00am 14.6 13.4 10.4 76 2.2 NE 7 11 4 6 - - 0.0
04/10:30am 13.7 12.6 10.5 81 1.7 NNW 7 11 4 6 - - 0.0
04/10:00am 12.5 11.7 10.9 90 0.8 WNW 6 11 3 6 - - 0.0
04/09:30am 11.4 10.9 10.8 96 0.3 WSW 4 7 2 4 - - 0.0
04/09:00am 9.7 9.7 9.7 100 0.0 CALM 0 0 0 0 - - 0.0
04/08:30am 9.2 7.9 9.2 100 0.0 E 6 7 3 4 - - 0.0
04/08:00am 6.7 5.9 6.7 100 0.0 CALM 0 0 0 0 - - 0.0
04/07:30am 3.5 2.1 3.5 100 0.0 CALM 0 0 0 0 - - 0.0
04/07:00am 1.5 -0.3 1.5 100 0.0 CALM 0 0 0 0 - - 0.0
04/06:30am 1.0 -2.0 1.0 100 0.0 E 6 6 3 3 - - 0.0
04/06:00am 0.9 -2.1 0.9 100 0.0 E 6 9 3 5 - - 0.0
04/05:30am 1.6 -0.5 1.6 100 0.0 E 2 6 1 3 - - 0.0
04/05:00am 2.7 1.1 2.7 100 0.0 CALM 0 0 0 0 - - 0.0
04/04:30am 2.1 0.4 2.1 100 0.0 CALM 0 0 0 0 - - 0.0
04/04:00am 2.2 -0.2 2.2 100 0.0 W 4 7 2 4 - - 0.0
04/03:30am 3.4 2.0 3.4 100 0.0 CALM 0 0 0 0 - - 0.0
04/03:00am 3.7 2.3 3.7 100 0.0 CALM 0 0 0 0 - - 0.0
04/02:30am 3.7 2.3 3.7 100 0.0 CALM 0 0 0 0 - - 0.0
04/02:00am 3.6 2.2 3.6 100 0.0 CALM 0 0 0 0 - - 0.0
04/01:30am 4.3 3.0 4.3 100 0.0 CALM 0 0 0 0 - - 0.0
04/01:00am 5.5 4.5 5.5 100 0.0 CALM 0 6 0 3 - - 0.0
04/12:30am 6.0 3.4 5.9 99 0.0 W 9 13 5 7 - - 0.0
04/12:00am 7.6 5.9 7.5 99 0.0 WSW 6 9 3 5 - - 0.0
 
Date/Time
EST
Temp
°C
App
Temp
°C
Dew
Point
Rel
Hum
%
Delta-T
°C
Wind Press
QNH
hPa
Press
MSL
hPa
Rain
since 9 am
mm
Dir
 
Spd
km/h
Gust
km/h
Spd
kts
Gust
kts
03/11:30pm 7.7 5.1 7.6 99 0.0 WSW 11 17 6 9 - - 0.0
03/11:00pm 7.5 5.1 7.2 98 0.1 WSW 9 13 5 7 - - 0.0
03/10:30pm 7.7 5.0 7.4 98 0.1 WSW 11 13 6 7 - - 0.0
03/10:00pm 8.4 6.3 6.5 88 0.9 SW 7 11 4 6 - - 0.0
03/09:30pm 10.0 7.8 7.9 87 1.0 SSW 9 11 5 6 - - 0.0
03/09:00pm 9.3 6.6 7.4 88 0.9 W 11 13 6 7 - - 0.0
03/08:30pm 10.8 8.6 7.7 81 1.5 WSW 9 9 5 5 - - 0.0
03/08:00pm 12.6 10.6 8.5 76 2.1 SSW 9 13 5 7 - - 0.0
03/07:30pm 10.7 8.4 7.6 81 1.5 WSW 9 13 5 7 - - 0.0
03/07:00pm 12.3 10.1 7.8 74 2.2 SW 9 11 5 6 - - 0.0
03/06:30pm 12.3 10.0 9.1 81 1.6 SSE 11 15 6 8 - - 0.0
03/06:00pm 13.9 11.7 9.3 74 2.4 SW 11 15 6 8 - - 0.0
03/05:30pm 15.0 14.6 11.2 78 2.0 W 4 9 2 5 - - 0.0
03/05:00pm 16.7 15.9 11.2 70 3.0 S 6 7 3 4 - - 0.0
03/04:30pm 17.0 15.5 10.4 65 3.5 S 9 11 5 6 - - 0.0
03/04:00pm 17.7 15.9 9.6 59 4.3 SSE 9 15 5 8 - - 0.0
03/03:30pm 17.6 15.1 8.2 54 4.8 SSW 11 17 6 9 - - 0.0
03/03:00pm 17.4 14.9 9.8 61 4.0 SSW 13 20 7 11 - - 0.0
03/02:30pm 17.0 14.3 8.9 59 4.2 SSW 13 22 7 12 - - 0.0
03/02:00pm 16.6 13.3 9.5 63 3.7 WSW 17 26 9 14 - - 0.0
03/01:30pm 15.9 12.8 10.2 69 3.0 SW 17 26 9 14 - - 0.0
03/01:00pm 15.4 11.8 8.4 63 3.6 SW 17 24 9 13 - - 0.0
03/12:30pm 14.9 12.0 10.9 77 2.1 SSW 17 28 9 15 - - 0.0
03/12:00pm 15.0 13.8 10.4 74 2.4 SW 7 13 4 7 - - 0.0
03/11:30am 13.4 11.0 11.3 87 1.1 SW 15 20 8 11 - - 0.0
03/11:00am 12.4 10.7 12.4 100 0.0 WSW 13 19 7 10 - - 0.0
03/10:30am 11.3 10.4 11.3 100 0.0 SW 7 11 4 6 - - 0.0
03/10:00am 10.8 9.4 10.8 100 0.0 SW 9 13 5 7 - - 0.0
03/09:30am 10.5 9.4 10.5 100 0.0 SW 7 11 4 6 - - 0.0
03/09:00am 10.1 8.5 10.1 100 0.0 SW 9 13 5 7 - - 17.4
03/08:30am 9.7 8.3 9.7 100 0.0 SW 7 9 4 5 - - 17.4
03/08:00am 9.4 7.2 9.4 100 0.0 WSW 11 13 6 7 - - 17.4
03/07:30am 9.0 6.7 9.0 100 0.0 WSW 11 13 6 7 - - 17.4
03/07:00am 8.9 7.3 8.9 100 0.0 WSW 7 9 4 5 - - 17.2
03/06:30am 8.8 6.8 8.8 100 0.0 WSW 9 11 5 6 - - 16.8
03/06:00am 8.6 7.0 8.6 100 0.0 WSW 7 9 4 5 - - 16.4
03/05:30am 8.6 7.0 8.6 100 0.0 SW 7 7 4 4 - - 15.6
03/05:00am 8.6 7.1 8.6 100 0.0 SW 6 7 3 4 - - 14.8
03/04:30am 8.5 6.8 8.5 100 0.0 WSW 7 9 4 5 - - 14.4
03/04:00am 8.6 7.1 8.6 100 0.0 WNW 6 7 3 4 - - 14.0
03/03:30am 8.7 7.3 8.7 100 0.0 WNW 6 7 3 4 - - 13.6
03/03:00am 8.7 7.1 8.7 100 0.0 W 7 9 4 5 - - 13.4
03/02:30am 8.9 7.0 8.9 100 0.0 SE 9 13 5 7 - - 13.2
03/02:00am 8.9 7.0 8.9 100 0.0 ESE 9 13 5 7 - - 13.2
03/01:30am 9.1 6.4 9.1 100 0.0 ESE 13 17 7 9 - - 13.0
03/01:00am 9.4 6.8 9.4 100 0.0 ESE 13 20 7 11 - - 12.6
03/12:30am 9.7 7.2 9.7 100 0.0 ESE 13 20 7 11 - - 12.2
03/12:00am 10.0 6.8 10.0 100 0.0 E 17 28 9 15 - - 11.8
 
Date/Time
EST
Temp
°C
App
Temp
°C
Dew
Point
Rel
Hum
%
Delta-T
°C
Wind Press
QNH
hPa
Press
MSL
hPa
Rain
since 9 am
mm
Dir
 
Spd
km/h
Gust
km/h
Spd
kts
Gust
kts
02/11:30pm 10.1 6.9 10.1 100 0.0 ESE 17 22 9 12 - - 11.6
02/11:00pm 10.2 7.8 10.2 100 0.0 E 13 17 7 9 - - 10.6
02/10:30pm 10.2 8.2 10.2 100 0.0 ESE 11 15 6 8 - - 8.4
02/10:00pm 10.2 8.2 10.2 100 0.0 ESE 11 17 6 9 - - 7.2
02/09:30pm 10.2 8.6 10.2 100 0.0 ESE 9 11 5 6 - - 7.0
02/09:00pm 10.1 8.8 10.1 100 0.0 SE 7 9 4 5 - - 6.0
02/08:30pm 10.6 10.8 10.6 100 0.0 CALM 0 0 0 0 - - 5.4
02/08:00pm 10.9 10.1 10.9 100 0.0 NNW 6 11 3 6 - - 3.4
02/07:30pm 11.7 10.7 10.9 95 0.4 ENE 7 11 4 6 - - 0.4
02/07:00pm 11.8 10.7 10.5 92 0.7 E 7 11 4 6 - - 0.0
02/06:30pm 12.3 10.6 10.0 86 1.2 E 9 11 5 6 - - 0.0
02/06:00pm 13.0 11.1 9.1 77 2.0 ENE 9 11 5 6 - - 0.0
02/05:30pm 14.0 12.5 9.0 72 2.6 NNE 7 13 4 7 - - 0.0
02/05:00pm 14.0 10.9 8.8 71 2.6 E 15 20 8 11 - - 0.0
02/04:30pm 14.6 11.5 8.8 68 3.0 ENE 15 20 8 11 - - 0.0
02/04:00pm 15.0 11.7 9.4 69 2.9 ENE 17 22 9 12 - - 0.0
02/03:30pm 15.5 12.0 8.7 64 3.5 ENE 17 26 9 14 - - 0.0
02/03:00pm 15.8 11.8 8.3 61 3.8 ENE 19 28 10 15 - - 0.0
02/02:30pm 16.3 12.0 9.3 63 3.7 ENE 22 33 12 18 - - 0.0
02/02:00pm 16.3 11.5 9.0 62 3.8 ENE 24 39 13 21 - - 0.0
02/01:30pm 15.9 11.9 8.9 63 3.6 ENE 20 32 11 17 - - 0.0
02/01:00pm 15.3 11.6 10.1 71 2.7 ENE 20 30 11 16 - - 0.0
02/12:30pm 14.8 10.7 10.2 74 2.4 E 22 30 12 16 - - 0.0
02/12:00pm 14.1 10.3 9.7 75 2.3 ENE 20 28 11 15 - - 0.0
02/11:30am 12.7 8.3 9.0 78 1.9 ENE 22 30 12 16 - - 0.0
02/11:00am 12.4 8.6 8.9 79 1.8 ENE 19 30 10 16 - - 0.0
02/10:30am 12.0 7.5 8.7 80 1.7 ENE 22 33 12 18 - - 0.0
02/10:00am 11.9 7.6 8.0 77 1.9 ENE 20 30 11 16 - - 0.0
02/09:30am 11.5 8.1 9.2 86 1.2 ENE 17 22 9 12 - - 0.0
02/09:00am 10.2 6.8 9.0 92 0.6 ENE 17 26 9 14 - - 0.0
02/08:30am 8.0 4.7 7.9 99 0.0 ENE 15 20 8 11 - - 0.0
02/08:00am 6.9 3.3 6.9 100 0.0 ENE 15 20 8 11 - - 0.0
02/07:30am 3.7 0.6 3.7 100 0.0 E 9 13 5 7 - - 0.0
02/07:00am 2.4 0.0 2.4 100 0.0 ENE 4 6 2 3 - - 0.0
02/06:30am 1.2 -1.9 1.2 100 0.0 ENE 7 9 4 5 - - 0.0
02/06:00am 1.4 -1.1 1.4 100 0.0 NE 4 6 2 3 - - 0.0
02/05:30am 1.1 -1.9 1.1 100 0.0 ENE 6 7 3 4 - - 0.0
02/05:00am 1.4 -1.7 1.4 100 0.0 E 7 9 4 5 - - 0.0
02/04:30am 2.3 -0.5 2.3 100 0.0 ESE 6 7 3 4 - - 0.0
02/04:00am 1.8 0.1 1.8 100 0.0 CALM 0 6 0 3 - - 0.0
02/03:30am 1.0 -2.0 1.0 100 0.0 E 6 7 3 4 - - 0.0
02/03:00am 1.5 -1.4 1.5 100 0.0 ESE 6 7 3 4 - - 0.0
02/02:30am 1.1 -2.0 1.1 100 0.0 ENE 7 9 4 5 - - 0.0
02/02:00am 1.2 -0.6 1.2 100 0.0 CALM 0 0 0 0 - - 0.0
02/01:30am 1.6 -0.1 1.6 100 0.0 CALM 0 0 0 0 - - 0.0
02/01:00am 2.2 0.6 2.2 100 0.0 CALM 0 0 0 0 - - 0.0
02/12:30am 2.0 0.3 2.0 100 0.0 CALM 0 0 0 0 - - 0.0
02/12:00am 2.2 0.6 2.2 100 0.0 CALM 0 0 0 0 - - 0.0
 
Date/Time
EST
Temp
°C
App
Temp
°C
Dew
Point
Rel
Hum
%
Delta-T
°C
Wind Press
QNH
hPa
Press
MSL
hPa
Rain
since 9 am
mm
Dir
 
Spd
km/h
Gust
km/h
Spd
kts
Gust
kts
01/11:30pm 2.2 0.6 2.2 100 0.0 CALM 0 0 0 0 - - 0.0
01/11:00pm 2.1 0.4 2.1 100 0.0 CALM 0 0 0 0 - - 0.0
01/10:30pm 1.6 -0.1 1.6 100 0.0 CALM 0 0 0 0 - - 0.0
01/10:00pm 2.9 1.4 2.9 100 0.0 CALM 0 0 0 0 - - 0.0
01/09:30pm 2.6 -0.1 2.6 100 0.0 E 6 7 3 4 - - 0.0
01/09:00pm 2.0 -0.8 2.0 100 0.0 ENE 6 7 3 4 - - 0.0
01/08:30pm 3.1 1.2 3.1 100 0.0 ENE 2 6 1 3 - - 0.0
01/08:00pm 3.6 2.2 3.6 100 0.0 CALM 0 0 0 0 - - 0.0
01/07:30pm 4.5 3.3 4.5 100 0.0 CALM 0 0 0 0 - - 0.0
01/07:00pm 4.8 2.3 4.8 100 0.0 ENE 7 9 4 5 - - 0.0
01/06:30pm 7.0 5.8 6.6 97 0.2 ENE 2 7 1 4 - - 0.0
01/06:00pm 9.2 8.4 6.5 83 1.3 CALM 0 0 0 0 - - 0.0

Other Formats:

Comma delimited format used in spreadsheet applications
http://www.bom.gov.au/fwo/IDV60801/IDV60801.95837.axf

JavaScript Object Notation format (JSON) in row-major order
http://www.bom.gov.au/fwo/IDV60801/IDV60801.95837.json